11/13 15:00 更新

2,000ftに雲が少し
5,000ftに雲が多い
7,000ftに雲が多い

地上風: 360°3kt
(310°~ 040°で変動)

上空風
13,000ft: 250°38kt
10,000ft: 270°21kt
 7,000ft: 未計測
 3,000ft: 110°6kt

地上: 15℃
上空: -7.3℃

日没: 16:36

RJTJ 130600Z 36003KT 310V040 9999 FEW020 BKN050 BKN070 15/10 Q1012 RMK 2CU020 6SC050 7AC070 A2990=